Terminal Aerodrome Forecast
Issued by NWS

Home | Current Version | Previous Version | Text Only | Print | Product List | Glossary Off
Versions: 1 2 3 4 5 6 7 8 9 10 11 12 13 14 15 16 17 18 19 20 21

000
FTUS43 KTOP 252300
TAFMHK
TAF
KMHK 252334Z 2600/2624 VRB05KT P6SM SCT090
     FM260500 10005KT P6SM VCTS BKN100CB
     FM260900 11005KT P6SM BKN120=

USA.gov is the U.S. government's official web portal to all federal, state and local government web resources and services.